createdAt,value
2022-08-12T00:00:36.506Z,90.70
2022-08-12T00:03:22.630Z,90.30
2022-08-12T00:06:09.675Z,90.40
2022-08-12T00:08:58.174Z,90.70
2022-08-12T00:11:45.872Z,90.60
2022-08-12T00:14:32.689Z,90.60
2022-08-12T00:17:22.743Z,90.30
2022-08-12T00:20:09.504Z,90.10
2022-08-12T00:22:59.805Z,90.00
2022-08-12T00:26:21.556Z,89.50
2022-08-12T00:29:02.409Z,91.20
2022-08-12T00:31:48.696Z,92.50
2022-08-12T00:34:36.414Z,93.50
2022-08-12T00:37:23.509Z,93.70
2022-08-12T00:40:11.084Z,94.30
2022-08-12T00:42:41.659Z,93.80
2022-08-12T00:45:11.691Z,93.10
2022-08-12T00:47:40.795Z,92.30
2022-08-12T00:50:18.724Z,92.30
2022-08-12T00:52:49.228Z,92.70
2022-08-12T00:55:19.547Z,92.70
2022-08-12T00:57:50.906Z,93.10
2022-08-12T01:00:21.705Z,93.00
2022-08-12T01:02:52.793Z,93.20
2022-08-12T01:05:42.032Z,93.40
2022-08-12T01:08:28.389Z,92.70
2022-08-12T01:11:15.632Z,92.30
2022-08-12T01:13:49.212Z,92.00
2022-08-12T01:16:20.539Z,91.80
2022-08-12T01:18:49.585Z,91.80
2022-08-12T01:21:38.166Z,92.20
2022-08-12T01:24:30.897Z,92.60
2022-08-12T01:27:03.495Z,92.20
2022-08-12T01:29:43.153Z,92.30
2022-08-12T01:32:15.190Z,92.40
2022-08-12T01:34:54.480Z,92.20
2022-08-12T01:37:25.674Z,91.80
2022-08-12T01:40:36.209Z,91.60
2022-08-12T01:42:49.110Z,91.70
2022-08-12T01:45:23.033Z,92.40
2022-08-12T01:48:05.104Z,92.50
2022-08-12T01:50:42.985Z,92.30
2022-08-12T01:53:13.550Z,92.70
2022-08-12T01:55:44.151Z,93.10
2022-08-12T01:58:23.261Z,93.10
2022-08-12T02:00:59.358Z,92.90
2022-08-12T02:04:05.020Z,92.80
2022-08-12T02:06:58.158Z,92.00
2022-08-12T02:09:53.033Z,92.10
2022-08-12T02:12:33.292Z,93.00
2022-08-12T02:15:21.515Z,93.00
2022-08-12T02:18:13.933Z,93.10
2022-08-12T02:20:52.757Z,92.50
2022-08-12T02:23:27.201Z,91.60
2022-08-12T02:26:00.611Z,93.10
2022-08-12T02:28:29.862Z,93.80
2022-08-12T02:31:04.958Z,94.20
2022-08-12T02:33:34.462Z,94.00
2022-08-12T02:36:03.751Z,93.30
2022-08-12T02:38:33.225Z,93.90
2022-08-12T02:41:07.036Z,94.30
2022-08-12T02:43:39.146Z,94.20
2022-08-12T02:46:14.833Z,94.20
2022-08-12T02:48:49.074Z,93.70
2022-08-12T02:51:20.638Z,93.30
2022-08-12T02:54:03.047Z,93.50
2022-08-12T02:56:34.708Z,93.40
2022-08-12T02:59:03.855Z,93.80
2022-08-12T03:01:36.077Z,95.10
2022-08-12T03:04:26.964Z,95.30
2022-08-12T03:07:10.662Z,95.00
2022-08-12T03:10:03.783Z,96.10
2022-08-12T03:12:49.058Z,95.90
2022-08-12T03:15:22.475Z,95.60
2022-08-12T03:18:24.480Z,95.20
2022-08-12T03:20:46.512Z,94.90
2022-08-12T03:23:21.543Z,95.60
2022-08-12T03:26:00.929Z,95.70
2022-08-12T03:28:48.278Z,96.90
2022-08-12T03:31:17.684Z,96.90
2022-08-12T03:34:00.413Z,96.50
2022-08-12T03:36:33.646Z,95.90
2022-08-12T03:39:17.899Z,95.90
2022-08-12T03:41:54.114Z,95.50
2022-08-12T03:44:49.965Z,95.70
2022-08-12T03:47:41.296Z,95.90
2022-08-12T03:50:29.317Z,95.60
2022-08-12T03:53:15.416Z,95.40
2022-08-12T03:56:01.103Z,95.90
2022-08-12T03:58:49.386Z,96.10
2022-08-12T04:01:18.484Z,96.30
2022-08-12T04:03:53.422Z,96.20
2022-08-12T04:06:34.969Z,96.10
2022-08-12T04:09:16.341Z,95.60
2022-08-12T04:12:04.457Z,95.50
2022-08-12T04:14:34.168Z,94.90
2022-08-12T04:17:04.081Z,94.90
2022-08-12T04:19:33.106Z,94.60
2022-08-12T04:22:03.982Z,94.30
2022-08-12T04:24:36.213Z,93.40
2022-08-12T04:27:08.717Z,93.70
2022-08-12T04:30:31.436Z,93.10
2022-08-12T04:32:27.556Z,92.80
2022-08-12T04:34:56.544Z,92.70
2022-08-12T04:37:26.565Z,91.60
2022-08-12T04:39:55.673Z,91.70
2022-08-12T04:42:25.636Z,91.60
2022-08-12T04:44:54.939Z,91.50
2022-08-12T04:47:24.723Z,91.10
2022-08-12T04:49:53.257Z,90.50
2022-08-12T04:52:21.873Z,89.60
2022-08-12T04:54:52.569Z,89.50
2022-08-12T04:57:21.360Z,89.10
2022-08-12T04:59:49.898Z,88.80
2022-08-12T05:02:21.769Z,89.30
2022-08-12T05:04:53.005Z,89.60
2022-08-12T05:07:24.252Z,89.70
2022-08-12T05:10:00.796Z,88.90
2022-08-12T05:12:36.595Z,88.40
2022-08-12T05:15:19.135Z,87.90
2022-08-12T05:18:00.057Z,87.60
2022-08-12T05:20:31.130Z,87.60
2022-08-12T05:23:13.025Z,88.20
2022-08-12T05:25:44.749Z,88.70
2022-08-12T05:28:14.223Z,87.60
2022-08-12T05:30:43.889Z,87.20
2022-08-12T05:33:15.767Z,86.70
2022-08-12T05:35:47.736Z,86.40
2022-08-12T05:38:37.328Z,86.50
2022-08-12T05:41:19.375Z,85.80
2022-08-12T05:43:51.037Z,85.30
2022-08-12T05:46:20.772Z,84.90
2022-08-12T05:48:51.382Z,84.40
2022-08-12T05:51:20.053Z,83.50
2022-08-12T05:53:48.607Z,83.10
2022-08-12T05:56:24.626Z,82.20
2022-08-12T05:58:54.820Z,80.90
2022-08-12T06:02:09.528Z,77.60
2022-08-12T06:04:14.369Z,77.70
2022-08-12T06:06:43.361Z,77.50
2022-08-12T06:09:13.365Z,76.90
2022-08-12T06:12:04.392Z,76.80
2022-08-12T06:14:37.723Z,78.10
2022-08-12T06:17:09.670Z,78.70
2022-08-12T06:20:27.993Z,78.70
2022-08-12T06:22:27.364Z,77.80
2022-08-12T06:24:55.903Z,76.40
2022-08-12T06:27:25.988Z,75.70
2022-08-12T06:30:08.905Z,76.10
2022-08-12T06:32:51.601Z,77.40
2022-08-12T06:35:49.393Z,77.50
2022-08-12T06:38:19.511Z,76.80
2022-08-12T06:41:08.019Z,75.00
2022-08-12T06:44:04.441Z,75.00
2022-08-12T06:46:35.175Z,74.50
2022-08-12T06:49:03.755Z,76.40
2022-08-12T06:51:33.436Z,76.80
2022-08-12T06:54:02.972Z,75.90
2022-08-12T06:57:01.712Z,75.60
2022-08-12T06:59:22.431Z,75.50
2022-08-12T07:01:52.068Z,74.20
2022-08-12T07:04:38.277Z,73.70
2022-08-12T07:07:10.606Z,73.10
2022-08-12T07:10:03.675Z,71.70
2022-08-12T07:12:28.814Z,71.60
2022-08-12T07:14:59.490Z,71.10
2022-08-12T07:17:36.459Z,70.80
2022-08-12T07:20:29.650Z,72.00
2022-08-12T07:22:58.177Z,70.60
2022-08-12T07:25:41.093Z,69.80
2022-08-12T07:28:16.659Z,70.20
2022-08-12T07:30:49.706Z,70.60
2022-08-12T07:33:22.482Z,70.90
2022-08-12T07:35:54.192Z,71.70
2022-08-12T07:38:29.868Z,72.20
2022-08-12T07:41:03.463Z,72.20
2022-08-12T07:43:35.597Z,72.10
2022-08-12T07:46:11.159Z,71.80
2022-08-12T07:48:42.576Z,70.80
2022-08-12T07:51:11.660Z,70.40
2022-08-12T07:54:00.537Z,70.20
2022-08-12T07:56:31.306Z,70.60
2022-08-12T07:59:01.352Z,70.30
2022-08-12T08:01:33.043Z,70.30
2022-08-12T08:04:19.730Z,69.90
2022-08-12T08:06:49.793Z,69.10
2022-08-12T08:09:22.742Z,68.40
2022-08-12T08:12:09.446Z,68.20
2022-08-12T08:14:48.355Z,68.30
2022-08-12T08:17:20.315Z,68.20
2022-08-12T08:20:04.103Z,68.60
2022-08-12T08:22:40.572Z,67.80
2022-08-12T08:25:36.354Z,67.90
2022-08-12T08:28:02.065Z,66.90
2022-08-12T08:30:32.522Z,67.10
2022-08-12T08:33:02.676Z,67.40
2022-08-12T08:35:51.111Z,66.70
2022-08-12T08:38:31.772Z,67.10
2022-08-12T08:42:17.302Z,66.90
2022-08-12T08:44:08.047Z,66.80
2022-08-12T08:46:38.217Z,66.00
2022-08-12T08:49:08.840Z,64.80
2022-08-12T08:51:39.108Z,64.90
2022-08-12T08:54:11.640Z,64.10
2022-08-12T08:56:46.593Z,63.60
2022-08-12T08:59:15.817Z,64.00
2022-08-12T09:01:45.100Z,64.40
2022-08-12T09:05:12.751Z,63.60
2022-08-12T09:07:16.851Z,63.50
2022-08-12T09:10:03.473Z,63.70
2022-08-12T09:12:54.158Z,62.60
2022-08-12T09:15:35.651Z,61.90
2022-08-12T09:18:08.948Z,61.90
2022-08-12T09:20:42.514Z,61.20
2022-08-12T09:26:04.089Z,60.40
2022-08-12T09:28:37.306Z,60.00
2022-08-12T09:32:04.310Z,59.70
2022-08-12T09:34:25.933Z,59.20
2022-08-12T09:36:57.709Z,58.90
2022-08-12T09:40:03.304Z,59.00
2022-08-12T09:42:43.397Z,58.60
2022-08-12T09:45:24.540Z,58.80
2022-08-12T09:48:20.072Z,58.30
2022-08-12T09:50:55.616Z,57.90
2022-08-12T09:53:36.139Z,57.50
2022-08-12T09:57:00.932Z,57.70
2022-08-12T09:59:10.077Z,58.30
2022-08-12T10:02:44.095Z,57.10
2022-08-12T10:04:30.185Z,57.20
2022-08-12T10:06:59.011Z,56.90
2022-08-12T10:09:57.572Z,56.70
2022-08-12T10:12:36.982Z,56.80
2022-08-12T10:15:06.468Z,56.50
2022-08-12T10:17:35.793Z,56.70
2022-08-12T10:20:24.463Z,55.90
2022-08-12T10:23:00.296Z,55.60
2022-08-12T10:26:18.494Z,55.70
2022-08-12T10:29:02.735Z,55.70
2022-08-12T10:31:47.050Z,56.20
2022-08-12T10:34:25.909Z,55.50
2022-08-12T10:36:58.824Z,55.70
2022-08-12T10:40:00.759Z,55.80
2022-08-12T10:42:57.713Z,55.90
2022-08-12T10:45:31.920Z,56.10
2022-08-12T10:48:21.065Z,56.30
2022-08-12T10:51:01.160Z,56.30
2022-08-12T10:53:44.885Z,56.00
2022-08-12T10:56:16.607Z,56.30
2022-08-12T10:58:47.943Z,56.60
2022-08-12T11:03:02.293Z,57.40
2022-08-12T11:04:23.559Z,56.70
2022-08-12T11:07:06.490Z,55.90
2022-08-12T11:09:56.527Z,56.10
2022-08-12T11:12:57.083Z,56.30
2022-08-12T11:15:24.319Z,56.30
2022-08-12T11:18:17.662Z,56.70
2022-08-12T11:20:48.264Z,56.60
2022-08-12T11:23:35.691Z,62.00
2022-08-12T11:26:09.344Z,63.30
2022-08-12T11:28:38.982Z,64.20
2022-08-12T11:31:12.261Z,70.90
2022-08-12T11:34:04.503Z,90.80
2022-08-12T11:36:32.686Z,93.00
2022-08-12T11:39:08.534Z,93.80
2022-08-12T11:41:43.004Z,99.90
2022-08-12T11:44:35.171Z,99.90
2022-08-12T11:47:03.300Z,99.90
2022-08-12T11:49:38.117Z,99.90
2022-08-12T11:52:27.905Z,99.90
2022-08-12T11:54:55.601Z,99.90
2022-08-12T11:58:17.294Z,99.90
2022-08-12T12:03:04.491Z,99.90
2022-08-12T12:05:39.638Z,99.90
2022-08-12T12:08:38.287Z,99.90
2022-08-12T12:11:00.308Z,99.90
2022-08-12T12:14:08.460Z,99.90
2022-08-12T12:16:17.502Z,99.90
2022-08-12T12:18:47.672Z,99.90
2022-08-12T12:21:17.438Z,99.90
2022-08-12T12:24:06.671Z,99.90
2022-08-12T12:26:38.427Z,99.90
2022-08-12T12:30:05.726Z,99.90
2022-08-12T12:32:10.077Z,99.90
2022-08-12T12:35:18.351Z,99.90
2022-08-12T12:38:03.558Z,99.90
2022-08-12T12:40:19.995Z,99.90
2022-08-12T12:42:57.870Z,99.90
2022-08-12T12:45:33.306Z,99.90
2022-08-12T12:48:03.751Z,99.90
2022-08-12T12:50:45.534Z,99.90
2022-08-12T12:54:07.699Z,99.90
2022-08-12T12:56:16.382Z,99.90
2022-08-12T12:58:49.823Z,99.90
2022-08-12T13:01:25.503Z,99.90
2022-08-12T13:04:01.779Z,99.90
2022-08-12T13:06:34.312Z,99.90
2022-08-12T13:09:04.690Z,99.90
2022-08-12T13:11:42.236Z,99.90
2022-08-12T13:14:30.934Z,99.90
2022-08-12T13:17:02.747Z,99.90
2022-08-12T13:19:45.227Z,99.90
2022-08-12T13:22:21.117Z,99.90
2022-08-12T13:24:55.685Z,99.90
2022-08-12T13:27:35.516Z,99.90
2022-08-12T13:30:10.957Z,99.90
2022-08-12T13:32:43.627Z,99.90
2022-08-12T13:35:33.183Z,99.90
2022-08-12T13:38:16.090Z,99.90
2022-08-12T13:40:56.059Z,99.90
2022-08-12T13:43:40.487Z,99.90
2022-08-12T13:46:14.637Z,99.90
2022-08-12T13:48:44.892Z,99.90
2022-08-12T13:51:13.996Z,99.90
2022-08-12T13:53:58.947Z,99.90
2022-08-12T13:56:34.532Z,99.90
2022-08-12T13:59:07.860Z,99.90
2022-08-12T14:01:40.362Z,99.90
2022-08-12T14:04:11.464Z,99.90
2022-08-12T14:06:40.818Z,99.90
2022-08-12T14:09:17.611Z,99.90
2022-08-12T14:11:58.497Z,99.90
2022-08-12T14:14:31.148Z,99.90
2022-08-12T14:17:05.658Z,99.90
2022-08-12T14:19:48.622Z,99.90
2022-08-12T14:22:26.110Z,99.90
2022-08-12T14:24:58.937Z,99.90
2022-08-12T14:28:02.644Z,99.90
2022-08-12T14:30:29.059Z,99.90
2022-08-12T14:32:59.675Z,99.90
2022-08-12T14:35:29.504Z,99.90
2022-08-12T14:38:21.030Z,99.90
2022-08-12T14:40:56.702Z,99.90
2022-08-12T14:43:31.687Z,99.90
2022-08-12T14:46:15.736Z,99.90
2022-08-12T14:48:46.372Z,99.90
2022-08-12T14:52:44.146Z,99.90
2022-08-12T14:56:59.820Z,99.90
2022-08-12T14:57:20.498Z,99.90
2022-08-12T15:00:10.305Z,99.90
2022-08-12T15:02:39.525Z,99.90
2022-08-12T15:05:08.472Z,99.90
2022-08-12T15:07:48.942Z,99.90
2022-08-12T15:10:31.354Z,99.90
2022-08-12T15:13:08.196Z,99.90
2022-08-12T15:15:43.836Z,99.90
2022-08-12T15:18:21.171Z,99.90
2022-08-12T15:20:51.763Z,99.90
2022-08-12T15:23:21.974Z,99.90
2022-08-12T15:25:59.747Z,99.90
2022-08-12T15:28:35.451Z,99.90
2022-08-12T15:31:21.251Z,99.90
2022-08-12T15:33:57.954Z,99.90
2022-08-12T15:36:50.244Z,99.90
2022-08-12T15:39:17.654Z,99.90
2022-08-12T15:41:49.144Z,99.10
2022-08-12T15:44:38.386Z,98.50
2022-08-12T15:47:09.991Z,97.80
2022-08-12T15:49:54.402Z,97.80
2022-08-12T15:52:30.720Z,96.70
2022-08-12T15:55:06.518Z,98.80
2022-08-12T15:57:41.626Z,97.70
2022-08-12T16:00:28.987Z,98.30
2022-08-12T16:03:05.801Z,97.20
2022-08-12T16:06:13.346Z,98.00
2022-08-12T16:08:36.569Z,97.90
2022-08-12T16:11:14.616Z,98.40
2022-08-12T16:13:47.436Z,98.40
2022-08-12T16:16:23.316Z,97.40
2022-08-12T16:18:58.773Z,96.50
2022-08-12T16:21:51.991Z,97.00
2022-08-12T16:24:18.804Z,96.60
2022-08-12T16:26:51.421Z,96.50
2022-08-12T16:29:52.381Z,97.60
2022-08-12T16:32:31.467Z,96.00
2022-08-12T16:35:01.906Z,96.60
2022-08-12T16:38:25.818Z,97.50
2022-08-12T16:40:22.232Z,99.00
2022-08-12T16:43:01.640Z,98.20
2022-08-12T16:46:04.482Z,98.30
2022-08-12T16:48:35.017Z,98.50
2022-08-12T16:51:08.162Z,99.40
2022-08-12T16:53:43.976Z,99.90
2022-08-12T16:56:16.014Z,99.90
2022-08-12T16:58:47.292Z,99.90
2022-08-12T17:01:16.633Z,99.90
2022-08-12T17:04:02.487Z,99.90
2022-08-12T17:06:31.172Z,99.90
2022-08-12T17:09:08.668Z,99.90
2022-08-12T17:11:49.134Z,99.90
2022-08-12T17:14:22.897Z,99.90
2022-08-12T17:16:55.046Z,99.90
2022-08-12T17:20:28.916Z,99.90
2022-08-12T17:22:21.680Z,99.90
2022-08-12T17:24:55.465Z,99.90
2022-08-12T17:27:26.432Z,99.90
2022-08-12T17:30:04.161Z,99.90
2022-08-12T17:32:37.057Z,99.90
2022-08-12T17:35:30.243Z,99.90
2022-08-12T17:38:11.778Z,99.90
2022-08-12T17:40:41.332Z,99.90
2022-08-12T17:43:52.141Z,99.90
2022-08-12T17:46:02.876Z,99.90
2022-08-12T17:48:34.801Z,99.90
2022-08-12T17:51:15.407Z,99.90
2022-08-12T17:54:10.316Z,99.90
2022-08-12T17:56:38.162Z,99.90
2022-08-12T17:59:12.115Z,99.90
2022-08-12T18:01:45.482Z,99.90
2022-08-12T18:04:21.905Z,99.90
2022-08-12T18:06:53.825Z,99.90
2022-08-12T18:09:24.745Z,99.90
2022-08-12T18:12:24.322Z,99.90
2022-08-12T18:14:56.088Z,99.90
2022-08-12T18:17:28.316Z,99.90
2022-08-12T18:20:05.588Z,99.90
2022-08-12T18:22:38.646Z,99.90
2022-08-12T18:26:10.107Z,99.90
2022-08-12T18:28:15.922Z,99.90
2022-08-12T18:30:52.254Z,99.90
2022-08-12T18:33:25.599Z,99.90
2022-08-12T18:35:56.774Z,99.90
2022-08-12T18:38:28.663Z,99.90
2022-08-12T18:41:22.084Z,99.90
2022-08-12T18:44:02.553Z,99.90
2022-08-12T18:46:54.140Z,99.90
2022-08-12T18:49:31.949Z,99.90
2022-08-12T18:52:07.774Z,99.90
2022-08-12T18:54:53.386Z,99.90
2022-08-12T18:58:05.919Z,99.90
2022-08-12T19:00:21.574Z,99.90
2022-08-12T19:02:53.039Z,99.90
2022-08-12T19:05:24.546Z,99.90
2022-08-12T19:08:13.635Z,99.90
2022-08-12T19:10:50.720Z,99.90
2022-08-12T19:13:38.652Z,99.90
2022-08-12T19:16:11.194Z,99.90
2022-08-12T19:18:44.703Z,99.90
2022-08-12T19:21:16.130Z,99.90
2022-08-12T19:24:06.877Z,99.90
2022-08-12T19:26:36.942Z,99.90
2022-08-12T19:29:08.432Z,99.90
2022-08-12T19:31:57.511Z,99.90
2022-08-12T19:35:24.136Z,99.90
2022-08-12T19:37:27.322Z,99.90
2022-08-12T19:40:20.474Z,99.90
2022-08-12T19:43:01.623Z,99.90
2022-08-12T19:45:43.587Z,99.90
2022-08-12T19:48:19.705Z,99.90
2022-08-12T19:50:50.149Z,99.90
2022-08-12T19:53:22.628Z,99.90
2022-08-12T19:55:53.973Z,99.90
2022-08-12T19:58:25.049Z,99.90
2022-08-12T20:00:54.958Z,99.90
2022-08-12T20:03:38.432Z,99.90
2022-08-12T20:06:15.631Z,99.90
2022-08-12T20:08:55.521Z,99.90
2022-08-12T20:12:09.875Z,99.90
2022-08-12T20:14:17.816Z,99.90
2022-08-12T20:16:51.022Z,99.90
2022-08-12T20:19:28.532Z,99.90
2022-08-12T20:22:24.270Z,99.90
2022-08-12T20:25:01.132Z,99.90
2022-08-12T20:28:03.409Z,99.90
2022-08-12T20:30:37.855Z,99.90
2022-08-12T20:33:18.363Z,99.90
2022-08-12T20:36:13.308Z,99.90
2022-08-12T20:38:45.989Z,99.90
2022-08-12T20:41:19.014Z,99.90
2022-08-12T20:43:52.531Z,99.90
2022-08-12T20:46:24.178Z,99.90
2022-08-12T20:48:57.815Z,99.90
2022-08-12T20:51:28.041Z,99.90
2022-08-12T20:54:04.425Z,99.90
2022-08-12T20:56:37.061Z,99.90
2022-08-12T20:59:07.671Z,99.90
2022-08-12T21:01:47.904Z,99.90
2022-08-12T21:04:36.091Z,99.90
2022-08-12T21:07:09.187Z,99.90
2022-08-12T21:09:42.014Z,99.90
2022-08-12T21:12:27.982Z,99.90
2022-08-12T21:15:17.051Z,99.90
2022-08-12T21:18:01.169Z,99.90
2022-08-12T21:20:40.124Z,99.90
2022-08-12T21:23:09.807Z,99.90
2022-08-12T21:25:45.125Z,99.90
2022-08-12T21:28:15.009Z,99.90
2022-08-12T21:31:10.540Z,99.90
2022-08-12T21:33:45.897Z,99.90
2022-08-12T21:36:34.585Z,99.90
2022-08-12T21:39:18.118Z,99.90
2022-08-12T21:41:51.393Z,99.90
2022-08-12T21:45:43.490Z,99.90
2022-08-12T21:47:19.567Z,99.90
2022-08-12T21:50:02.867Z,99.90
2022-08-12T21:52:36.434Z,99.90
2022-08-12T21:55:08.249Z,99.90
2022-08-12T21:57:53.414Z,99.90
2022-08-12T22:00:32.113Z,99.90
2022-08-12T22:04:02.661Z,99.90
2022-08-12T22:06:26.132Z,99.90
2022-08-12T22:09:15.872Z,99.90
2022-08-12T22:11:56.177Z,99.90
2022-08-12T22:14:28.538Z,99.90
2022-08-12T22:16:58.342Z,99.90
2022-08-12T22:19:27.304Z,99.90
2022-08-12T22:21:58.604Z,99.90
2022-08-12T22:24:30.353Z,99.90
2022-08-12T22:27:14.428Z,99.90
2022-08-12T22:30:07.211Z,99.90
2022-08-12T22:32:38.770Z,99.90
2022-08-12T22:35:29.539Z,99.90
2022-08-12T22:38:19.493Z,99.90
2022-08-12T22:40:49.506Z,99.90
2022-08-12T22:43:36.565Z,99.90
2022-08-12T22:46:43.155Z,99.90
2022-08-12T22:49:22.394Z,99.90
2022-08-12T22:52:08.419Z,99.90
2022-08-12T22:54:46.283Z,99.90
2022-08-12T22:57:49.308Z,99.90
2022-08-12T23:00:27.079Z,99.90
2022-08-12T23:03:00.417Z,99.90
2022-08-12T23:05:57.147Z,99.90
2022-08-12T23:08:23.627Z,99.90
2022-08-12T23:11:05.867Z,99.90
2022-08-12T23:13:55.286Z,99.90
2022-08-12T23:16:30.818Z,99.90
2022-08-12T23:19:10.919Z,99.90
2022-08-12T23:22:06.738Z,99.90
2022-08-12T23:24:56.038Z,99.90
2022-08-12T23:27:50.855Z,99.90
2022-08-12T23:30:31.636Z,99.90
2022-08-12T23:33:20.579Z,99.90
2022-08-12T23:35:59.131Z,99.90
2022-08-12T23:38:33.269Z,99.90
2022-08-12T23:41:03.666Z,99.90
2022-08-12T23:43:39.599Z,99.90
2022-08-12T23:46:10.830Z,99.90
2022-08-12T23:48:39.964Z,99.90
2022-08-12T23:51:21.586Z,99.90
2022-08-12T23:53:55.361Z,99.90
2022-08-12T23:56:26.508Z,99.90
2022-08-12T23:58:57.488Z,99.90
